sensor_id;sensor_type;location;lat;lon;timestamp;temperature;humidity
26964;DHT22;14521;48.148;-1.656;2023-02-01T00:02:08;18.20;81.00
26964;DHT22;14521;48.148;-1.656;2023-02-01T00:05:30;18.20;81.00
26964;DHT22;14521;48.148;-1.656;2023-02-01T00:08:53;18.10;81.00
26964;DHT22;14521;48.148;-1.656;2023-02-01T00:12:16;18.10;81.00
26964;DHT22;14521;48.148;-1.656;2023-02-01T00:15:38;18.10;81.00
26964;DHT22;14521;48.148;-1.656;2023-02-01T00:19:04;18.10;80.90
26964;DHT22;14521;48.148;-1.656;2023-02-01T00:22:27;18.00;80.60
26964;DHT22;14521;48.148;-1.656;2023-02-01T00:25:49;18.00;80.40
26964;DHT22;14521;48.148;-1.656;2023-02-01T00:29:15;18.00;80.40
26964;DHT22;14521;48.148;-1.656;2023-02-01T00:32:38;18.00;80.20
26964;DHT22;14521;48.148;-1.656;2023-02-01T00:36:01;18.00;80.30
26964;DHT22;14521;48.148;-1.656;2023-02-01T00:39:24;18.00;80.20
26964;DHT22;14521;48.148;-1.656;2023-02-01T00:42:46;18.00;80.20
26964;DHT22;14521;48.148;-1.656;2023-02-01T00:46:08;18.00;80.30
26964;DHT22;14521;48.148;-1.656;2023-02-01T00:49:31;18.00;80.20
26964;DHT22;14521;48.148;-1.656;2023-02-01T00:52:53;18.00;80.30
26964;DHT22;14521;48.148;-1.656;2023-02-01T00:56:15;18.00;80.20
26964;DHT22;14521;48.148;-1.656;2023-02-01T00:59:38;18.00;80.30
26964;DHT22;14521;48.148;-1.656;2023-02-01T01:03:00;18.00;80.10
26964;DHT22;14521;48.148;-1.656;2023-02-01T01:06:23;18.00;80.10
26964;DHT22;14521;48.148;-1.656;2023-02-01T01:09:46;17.90;79.80
26964;DHT22;14521;48.148;-1.656;2023-02-01T01:13:08;17.90;79.80
26964;DHT22;14521;48.148;-1.656;2023-02-01T01:16:32;17.90;79.90
26964;DHT22;14521;48.148;-1.656;2023-02-01T01:19:54;17.90;79.80
26964;DHT22;14521;48.148;-1.656;2023-02-01T01:23:18;17.90;80.70
26964;DHT22;14521;48.148;-1.656;2023-02-01T01:26:40;17.90;79.90
26964;DHT22;14521;48.148;-1.656;2023-02-01T01:30:03;17.80;79.80
26964;DHT22;14521;48.148;-1.656;2023-02-01T01:33:25;17.90;79.80
26964;DHT22;14521;48.148;-1.656;2023-02-01T01:36:47;17.80;79.80
26964;DHT22;14521;48.148;-1.656;2023-02-01T01:40:10;17.90;79.70
26964;DHT22;14521;48.148;-1.656;2023-02-01T01:43:49;17.90;79.40
26964;DHT22;14521;48.148;-1.656;2023-02-01T01:47:13;17.90;79.50
26964;DHT22;14521;48.148;-1.656;2023-02-01T01:50:40;17.80;79.60
26964;DHT22;14521;48.148;-1.656;2023-02-01T01:54:17;17.80;79.40
26964;DHT22;14521;48.148;-1.656;2023-02-01T01:57:41;17.80;79.60
26964;DHT22;14521;48.148;-1.656;2023-02-01T02:01:04;17.80;79.30
26964;DHT22;14521;48.148;-1.656;2023-02-01T02:04:27;17.90;79.30
26964;DHT22;14521;48.148;-1.656;2023-02-01T02:07:50;17.90;79.30
26964;DHT22;14521;48.148;-1.656;2023-02-01T02:11:14;17.80;79.20
26964;DHT22;14521;48.148;-1.656;2023-02-01T02:14:36;17.80;79.30
26964;DHT22;14521;48.148;-1.656;2023-02-01T02:18:10;17.80;79.40
26964;DHT22;14521;48.148;-1.656;2023-02-01T02:21:40;17.80;79.30
26964;DHT22;14521;48.148;-1.656;2023-02-01T02:35:47;17.80;79.10
26964;DHT22;14521;48.148;-1.656;2023-02-01T02:43:00;17.80;79.10
26964;DHT22;14521;48.148;-1.656;2023-02-01T02:46:46;17.80;79.20
26964;DHT22;14521;48.148;-1.656;2023-02-01T02:50:35;17.80;79.10
26964;DHT22;14521;48.148;-1.656;2023-02-01T02:54:18;17.80;79.20
26964;DHT22;14521;48.148;-1.656;2023-02-01T02:57:59;17.80;79.10
26964;DHT22;14521;48.148;-1.656;2023-02-01T03:01:41;17.80;78.90
26964;DHT22;14521;48.148;-1.656;2023-02-01T03:05:22;17.70;79.00
26964;DHT22;14521;48.148;-1.656;2023-02-01T03:08:45;17.70;78.80
26964;DHT22;14521;48.148;-1.656;2023-02-01T03:12:09;17.70;78.80
26964;DHT22;14521;48.148;-1.656;2023-02-01T03:19:25;17.70;78.80
26964;DHT22;14521;48.148;-1.656;2023-02-01T03:22:49;17.70;78.80
26964;DHT22;14521;48.148;-1.656;2023-02-01T03:26:13;17.70;78.60
26964;DHT22;14521;48.148;-1.656;2023-02-01T03:29:44;17.70;78.70
26964;DHT22;14521;48.148;-1.656;2023-02-01T03:33:14;17.70;78.70
26964;DHT22;14521;48.148;-1.656;2023-02-01T03:37:19;17.70;78.50
26964;DHT22;14521;48.148;-1.656;2023-02-01T03:40:32;17.70;78.50
26964;DHT22;14521;48.148;-1.656;2023-02-01T03:47:20;17.70;78.80
26964;DHT22;14521;48.148;-1.656;2023-02-01T03:50:48;17.70;78.70
26964;DHT22;14521;48.148;-1.656;2023-02-01T03:54:12;17.70;78.60
26964;DHT22;14521;48.148;-1.656;2023-02-01T03:57:37;17.70;78.70
26964;DHT22;14521;48.148;-1.656;2023-02-01T04:01:00;17.70;79.60
26964;DHT22;14521;48.148;-1.656;2023-02-01T04:04:25;17.70;78.60
26964;DHT22;14521;48.148;-1.656;2023-02-01T04:07:50;17.70;78.70
26964;DHT22;14521;48.148;-1.656;2023-02-01T04:11:12;17.60;78.50
26964;DHT22;14521;48.148;-1.656;2023-02-01T04:14:34;17.70;78.50
26964;DHT22;14521;48.148;-1.656;2023-02-01T04:17:56;17.70;78.50
26964;DHT22;14521;48.148;-1.656;2023-02-01T04:21:18;17.70;78.50
26964;DHT22;14521;48.148;-1.656;2023-02-01T04:24:41;17.60;78.60
26964;DHT22;14521;48.148;-1.656;2023-02-01T04:28:03;17.60;78.60
26964;DHT22;14521;48.148;-1.656;2023-02-01T04:31:28;17.60;78.50
26964;DHT22;14521;48.148;-1.656;2023-02-01T04:34:50;17.60;78.70
26964;DHT22;14521;48.148;-1.656;2023-02-01T04:38:13;17.60;78.40
26964;DHT22;14521;48.148;-1.656;2023-02-01T04:41:35;17.60;78.40
26964;DHT22;14521;48.148;-1.656;2023-02-01T04:44:57;17.60;78.40
26964;DHT22;14521;48.148;-1.656;2023-02-01T04:48:19;17.60;78.30
26964;DHT22;14521;48.148;-1.656;2023-02-01T04:51:44;17.60;78.30
26964;DHT22;14521;48.148;-1.656;2023-02-01T04:55:07;17.60;78.30
26964;DHT22;14521;48.148;-1.656;2023-02-01T04:58:29;17.60;78.20
26964;DHT22;14521;48.148;-1.656;2023-02-01T05:01:51;17.60;78.40
26964;DHT22;14521;48.148;-1.656;2023-02-01T05:05:14;17.60;78.20
26964;DHT22;14521;48.148;-1.656;2023-02-01T05:08:36;17.60;78.30
26964;DHT22;14521;48.148;-1.656;2023-02-01T05:11:59;17.60;78.20
26964;DHT22;14521;48.148;-1.656;2023-02-01T05:15:40;17.70;78.40
26964;DHT22;14521;48.148;-1.656;2023-02-01T05:19:03;17.70;78.40
26964;DHT22;14521;48.148;-1.656;2023-02-01T05:22:25;17.80;78.40
26964;DHT22;14521;48.148;-1.656;2023-02-01T05:25:47;17.80;78.50
26964;DHT22;14521;48.148;-1.656;2023-02-01T05:29:10;17.90;78.50
26964;DHT22;14521;48.148;-1.656;2023-02-01T05:32:32;18.00;78.60
26964;DHT22;14521;48.148;-1.656;2023-02-01T05:35:55;18.00;78.40
26964;DHT22;14521;48.148;-1.656;2023-02-01T05:39:17;18.10;78.30
26964;DHT22;14521;48.148;-1.656;2023-02-01T05:42:39;18.10;78.20
26964;DHT22;14521;48.148;-1.656;2023-02-01T05:46:01;18.10;78.00
26964;DHT22;14521;48.148;-1.656;2023-02-01T05:49:23;18.20;78.10
26964;DHT22;14521;48.148;-1.656;2023-02-01T05:52:45;18.20;77.90
26964;DHT22;14521;48.148;-1.656;2023-02-01T05:56:08;18.20;77.90
26964;DHT22;14521;48.148;-1.656;2023-02-01T05:59:30;18.20;77.90
26964;DHT22;14521;48.148;-1.656;2023-02-01T06:02:52;18.30;78.00
26964;DHT22;14521;48.148;-1.656;2023-02-01T06:06:14;18.30;77.90
26964;DHT22;14521;48.148;-1.656;2023-02-01T06:09:37;18.30;77.70
26964;DHT22;14521;48.148;-1.656;2023-02-01T06:12:59;18.30;77.80
26964;DHT22;14521;48.148;-1.656;2023-02-01T06:16:21;18.30;77.90
26964;DHT22;14521;48.148;-1.656;2023-02-01T06:19:44;18.40;78.00
26964;DHT22;14521;48.148;-1.656;2023-02-01T06:23:06;18.40;77.90
26964;DHT22;14521;48.148;-1.656;2023-02-01T06:26:29;18.40;78.00
26964;DHT22;14521;48.148;-1.656;2023-02-01T06:29:51;18.40;77.80
26964;DHT22;14521;48.148;-1.656;2023-02-01T06:33:15;18.40;78.00
26964;DHT22;14521;48.148;-1.656;2023-02-01T06:36:37;18.40;78.00
26964;DHT22;14521;48.148;-1.656;2023-02-01T06:40:00;18.40;77.80
26964;DHT22;14521;48.148;-1.656;2023-02-01T06:43:23;18.40;78.00
26964;DHT22;14521;48.148;-1.656;2023-02-01T06:46:45;18.40;77.90
26964;DHT22;14521;48.148;-1.656;2023-02-01T06:50:07;18.40;77.90
26964;DHT22;14521;48.148;-1.656;2023-02-01T06:53:30;18.40;77.80
26964;DHT22;14521;48.148;-1.656;2023-02-01T06:56:52;18.40;77.70
26964;DHT22;14521;48.148;-1.656;2023-02-01T07:00:14;18.40;77.80
26964;DHT22;14521;48.148;-1.656;2023-02-01T07:03:37;18.40;77.70
26964;DHT22;14521;48.148;-1.656;2023-02-01T07:06:59;18.40;77.60
26964;DHT22;14521;48.148;-1.656;2023-02-01T07:10:22;18.40;77.70
26964;DHT22;14521;48.148;-1.656;2023-02-01T07:13:44;18.40;77.70
26964;DHT22;14521;48.148;-1.656;2023-02-01T07:17:07;18.40;77.80
26964;DHT22;14521;48.148;-1.656;2023-02-01T07:20:29;18.40;77.70
26964;DHT22;14521;48.148;-1.656;2023-02-01T07:23:51;18.40;77.60
26964;DHT22;14521;48.148;-1.656;2023-02-01T07:27:13;18.40;77.70
26964;DHT22;14521;48.148;-1.656;2023-02-01T07:30:35;18.40;77.60
26964;DHT22;14521;48.148;-1.656;2023-02-01T07:33:58;18.50;77.70
26964;DHT22;14521;48.148;-1.656;2023-02-01T07:37:20;18.50;77.80
26964;DHT22;14521;48.148;-1.656;2023-02-01T07:40:42;18.40;77.80
26964;DHT22;14521;48.148;-1.656;2023-02-01T07:44:05;18.40;77.80
26964;DHT22;14521;48.148;-1.656;2023-02-01T07:47:27;18.40;77.80
26964;DHT22;14521;48.148;-1.656;2023-02-01T07:50:56;18.40;77.80
26964;DHT22;14521;48.148;-1.656;2023-02-01T07:54:18;18.40;77.80
26964;DHT22;14521;48.148;-1.656;2023-02-01T07:57:41;18.30;77.60
26964;DHT22;14521;48.148;-1.656;2023-02-01T08:01:03;18.40;77.80
26964;DHT22;14521;48.148;-1.656;2023-02-01T08:04:46;18.40;77.80
26964;DHT22;14521;48.148;-1.656;2023-02-01T08:08:08;18.30;77.80
26964;DHT22;14521;48.148;-1.656;2023-02-01T08:11:30;18.30;77.60
26964;DHT22;14521;48.148;-1.656;2023-02-01T08:14:53;18.30;77.80
26964;DHT22;14521;48.148;-1.656;2023-02-01T08:18:15;18.30;77.80
26964;DHT22;14521;48.148;-1.656;2023-02-01T08:21:39;18.30;77.80
26964;DHT22;14521;48.148;-1.656;2023-02-01T08:25:02;18.30;77.80
26964;DHT22;14521;48.148;-1.656;2023-02-01T08:28:24;18.20;77.90
26964;DHT22;14521;48.148;-1.656;2023-02-01T08:31:46;18.20;77.60
26964;DHT22;14521;48.148;-1.656;2023-02-01T08:35:08;18.20;77.60
26964;DHT22;14521;48.148;-1.656;2023-02-01T08:38:31;18.30;76.80
26964;DHT22;14521;48.148;-1.656;2023-02-01T08:41:53;18.30;77.10
26964;DHT22;14521;48.148;-1.656;2023-02-01T08:45:34;18.30;76.10
26964;DHT22;14521;48.148;-1.656;2023-02-01T08:48:56;18.30;76.70
26964;DHT22;14521;48.148;-1.656;2023-02-01T08:52:18;18.30;76.40
26964;DHT22;14521;48.148;-1.656;2023-02-01T08:55:40;18.40;76.60
26964;DHT22;14521;48.148;-1.656;2023-02-01T08:59:03;18.40;78.20
26964;DHT22;14521;48.148;-1.656;2023-02-01T09:02:25;18.30;77.40
26964;DHT22;14521;48.148;-1.656;2023-02-01T09:05:47;18.30;77.20
26964;DHT22;14521;48.148;-1.656;2023-02-01T09:09:11;18.30;78.30
26964;DHT22;14521;48.148;-1.656;2023-02-01T09:12:33;18.30;77.90
26964;DHT22;14521;48.148;-1.656;2023-02-01T09:31:46;18.20;76.90
26964;DHT22;14521;48.148;-1.656;2023-02-01T09:35:23;18.20;78.90
26964;DHT22;14521;48.148;-1.656;2023-02-01T09:38:45;18.20;77.90
26964;DHT22;14521;48.148;-1.656;2023-02-01T09:49:20;18.20;77.40
26964;DHT22;14521;48.148;-1.656;2023-02-01T09:56:17;18.10;77.40
26964;DHT22;14521;48.148;-1.656;2023-02-01T09:59:46;18.10;78.00
26964;DHT22;14521;48.148;-1.656;2023-02-01T10:03:12;18.10;77.80
26964;DHT22;14521;48.148;-1.656;2023-02-01T10:21:28;18.10;79.50
26964;DHT22;14521;48.148;-1.656;2023-02-01T10:24:53;18.10;75.50
26964;DHT22;14521;48.148;-1.656;2023-02-01T10:28:20;18.00;77.70
26964;DHT22;14521;48.148;-1.656;2023-02-01T10:31:44;18.00;78.50
26964;DHT22;14521;48.148;-1.656;2023-02-01T10:35:18;17.90;78.30
26964;DHT22;14521;48.148;-1.656;2023-02-01T10:38:44;17.90;78.30
26964;DHT22;14521;48.148;-1.656;2023-02-01T10:42:08;17.90;78.60
26964;DHT22;14521;48.148;-1.656;2023-02-01T10:45:33;17.90;78.50
26964;DHT22;14521;48.148;-1.656;2023-02-01T10:48:56;17.80;78.60
26964;DHT22;14521;48.148;-1.656;2023-02-01T10:52:33;17.80;78.50
26964;DHT22;14521;48.148;-1.656;2023-02-01T10:55:57;17.90;78.70
26964;DHT22;14521;48.148;-1.656;2023-02-01T10:59:24;17.80;78.80
26964;DHT22;14521;48.148;-1.656;2023-02-01T11:02:48;17.80;78.50
26964;DHT22;14521;48.148;-1.656;2023-02-01T11:06:30;17.90;78.60
26964;DHT22;14521;48.148;-1.656;2023-02-01T11:09:54;17.90;78.70
26964;DHT22;14521;48.148;-1.656;2023-02-01T11:13:18;18.00;78.60
26964;DHT22;14521;48.148;-1.656;2023-02-01T11:16:40;18.00;78.20
26964;DHT22;14521;48.148;-1.656;2023-02-01T11:20:08;18.10;77.90
26964;DHT22;14521;48.148;-1.656;2023-02-01T11:23:41;18.20;77.70
26964;DHT22;14521;48.148;-1.656;2023-02-01T11:27:06;18.20;77.60
26964;DHT22;14521;48.148;-1.656;2023-02-01T11:30:45;18.20;77.40
26964;DHT22;14521;48.148;-1.656;2023-02-01T11:34:17;18.20;77.20
26964;DHT22;14521;48.148;-1.656;2023-02-01T11:37:42;18.30;77.20
26964;DHT22;14521;48.148;-1.656;2023-02-01T11:41:25;18.30;77.10
26964;DHT22;14521;48.148;-1.656;2023-02-01T11:44:48;18.30;76.90
26964;DHT22;14521;48.148;-1.656;2023-02-01T11:48:15;18.30;77.30
26964;DHT22;14521;48.148;-1.656;2023-02-01T11:52:17;18.40;77.10
26964;DHT22;14521;48.148;-1.656;2023-02-01T12:11:36;18.50;76.60
26964;DHT22;14521;48.148;-1.656;2023-02-01T12:15:23;18.50;76.60
26964;DHT22;14521;48.148;-1.656;2023-02-01T12:26:40;18.50;77.50
26964;DHT22;14521;48.148;-1.656;2023-02-01T12:33:54;18.50;78.80
26964;DHT22;14521;48.148;-1.656;2023-02-01T12:37:52;18.50;79.50
26964;DHT22;14521;48.148;-1.656;2023-02-01T12:41:27;18.50;80.00
26964;DHT22;14521;48.148;-1.656;2023-02-01T12:51:48;18.50;80.10
26964;DHT22;14521;48.148;-1.656;2023-02-01T12:55:35;18.50;79.90
26964;DHT22;14521;48.148;-1.656;2023-02-01T12:59:00;18.50;79.80
26964;DHT22;14521;48.148;-1.656;2023-02-01T13:06:12;18.50;79.90
26964;DHT22;14521;48.148;-1.656;2023-02-01T13:09:43;18.50;79.40
26964;DHT22;14521;48.148;-1.656;2023-02-01T13:13:21;18.50;80.00
26964;DHT22;14521;48.148;-1.656;2023-02-01T13:16:50;18.50;79.60
26964;DHT22;14521;48.148;-1.656;2023-02-01T13:20:30;18.50;79.30
26964;DHT22;14521;48.148;-1.656;2023-02-01T13:23:55;18.50;79.30
26964;DHT22;14521;48.148;-1.656;2023-02-01T13:27:18;18.40;79.20
26964;DHT22;14521;48.148;-1.656;2023-02-01T13:30:48;18.40;79.30
26964;DHT22;14521;48.148;-1.656;2023-02-01T13:39:06;18.40;79.00
26964;DHT22;14521;48.148;-1.656;2023-02-01T13:42:01;18.40;78.80
26964;DHT22;14521;48.148;-1.656;2023-02-01T13:45:33;18.40;78.80
26964;DHT22;14521;48.148;-1.656;2023-02-01T13:48:59;18.40;78.80
26964;DHT22;14521;48.148;-1.656;2023-02-01T13:52:38;18.40;78.80
26964;DHT22;14521;48.148;-1.656;2023-02-01T13:56:22;18.40;78.50
26964;DHT22;14521;48.148;-1.656;2023-02-01T14:06:42;18.30;78.30
26964;DHT22;14521;48.148;-1.656;2023-02-01T14:17:48;18.40;78.20
26964;DHT22;14521;48.148;-1.656;2023-02-01T14:21:24;18.40;78.30
26964;DHT22;14521;48.148;-1.656;2023-02-01T14:24:52;18.40;78.30
26964;DHT22;14521;48.148;-1.656;2023-02-01T14:28:28;18.40;78.20
26964;DHT22;14521;48.148;-1.656;2023-02-01T14:32:05;18.40;78.30
26964;DHT22;14521;48.148;-1.656;2023-02-01T14:35:28;18.40;78.30
26964;DHT22;14521;48.148;-1.656;2023-02-01T14:38:50;18.40;78.20
26964;DHT22;14521;48.148;-1.656;2023-02-01T14:45:46;18.40;78.20
26964;DHT22;14521;48.148;-1.656;2023-02-01T14:49:11;18.40;78.10
26964;DHT22;14521;48.148;-1.656;2023-02-01T14:52:39;18.40;78.00
26964;DHT22;14521;48.148;-1.656;2023-02-01T14:59:28;18.40;78.00
26964;DHT22;14521;48.148;-1.656;2023-02-01T15:03:15;18.40;78.00
26964;DHT22;14521;48.148;-1.656;2023-02-01T15:10:14;18.40;77.90
26964;DHT22;14521;48.148;-1.656;2023-02-01T15:13:36;18.40;77.90
26964;DHT22;14521;48.148;-1.656;2023-02-01T15:16:58;18.40;77.90
26964;DHT22;14521;48.148;-1.656;2023-02-01T15:20:30;18.40;77.90
26964;DHT22;14521;48.148;-1.656;2023-02-01T15:24:10;18.40;77.80
26964;DHT22;14521;48.148;-1.656;2023-02-01T15:27:33;18.40;77.90
26964;DHT22;14521;48.148;-1.656;2023-02-01T15:31:05;18.50;77.90
26964;DHT22;14521;48.148;-1.656;2023-02-01T15:34:48;18.50;77.80
26964;DHT22;14521;48.148;-1.656;2023-02-01T15:41:58;18.50;77.80
26964;DHT22;14521;48.148;-1.656;2023-02-01T15:45:26;18.50;78.10
26964;DHT22;14521;48.148;-1.656;2023-02-01T15:48:52;18.50;77.90
26964;DHT22;14521;48.148;-1.656;2023-02-01T15:52:35;18.50;77.80
26964;DHT22;14521;48.148;-1.656;2023-02-01T15:56:00;18.50;77.80
26964;DHT22;14521;48.148;-1.656;2023-02-01T15:59:45;18.50;77.80
26964;DHT22;14521;48.148;-1.656;2023-02-01T16:03:37;18.50;77.80
26964;DHT22;14521;48.148;-1.656;2023-02-01T16:07:03;18.50;78.00
26964;DHT22;14521;48.148;-1.656;2023-02-01T16:10:27;18.50;78.00
26964;DHT22;14521;48.148;-1.656;2023-02-01T16:13:50;18.50;78.00
26964;DHT22;14521;48.148;-1.656;2023-02-01T16:17:12;18.50;77.80
26964;DHT22;14521;48.148;-1.656;2023-02-01T16:20:35;18.50;77.80
26964;DHT22;14521;48.148;-1.656;2023-02-01T16:23:58;18.50;77.80
26964;DHT22;14521;48.148;-1.656;2023-02-01T16:27:25;18.50;77.80
26964;DHT22;14521;48.148;-1.656;2023-02-01T16:30:48;18.50;77.80
26964;DHT22;14521;48.148;-1.656;2023-02-01T16:34:14;18.40;77.70
26964;DHT22;14521;48.148;-1.656;2023-02-01T16:37:39;18.50;77.80
26964;DHT22;14521;48.148;-1.656;2023-02-01T16:41:01;18.50;78.30
26964;DHT22;14521;48.148;-1.656;2023-02-01T16:44:24;18.50;78.50
26964;DHT22;14521;48.148;-1.656;2023-02-01T16:47:49;18.50;77.80
26964;DHT22;14521;48.148;-1.656;2023-02-01T16:51:15;18.50;77.80
26964;DHT22;14521;48.148;-1.656;2023-02-01T16:54:38;18.50;77.70
26964;DHT22;14521;48.148;-1.656;2023-02-01T16:58:00;18.50;77.80
26964;DHT22;14521;48.148;-1.656;2023-02-01T17:01:23;18.50;78.10
26964;DHT22;14521;48.148;-1.656;2023-02-01T17:04:46;18.50;78.00
26964;DHT22;14521;48.148;-1.656;2023-02-01T17:08:12;18.50;78.20
26964;DHT22;14521;48.148;-1.656;2023-02-01T17:11:35;18.50;78.70
26964;DHT22;14521;48.148;-1.656;2023-02-01T17:14:59;18.60;78.80
26964;DHT22;14521;48.148;-1.656;2023-02-01T17:18:22;18.50;78.30
26964;DHT22;14521;48.148;-1.656;2023-02-01T17:21:47;18.50;78.00
26964;DHT22;14521;48.148;-1.656;2023-02-01T17:25:17;18.50;78.00
26964;DHT22;14521;48.148;-1.656;2023-02-01T17:28:39;18.50;78.50
26964;DHT22;14521;48.148;-1.656;2023-02-01T17:32:02;18.50;78.60
26964;DHT22;14521;48.148;-1.656;2023-02-01T17:35:28;18.50;79.00
26964;DHT22;14521;48.148;-1.656;2023-02-01T17:38:52;18.50;78.30
26964;DHT22;14521;48.148;-1.656;2023-02-01T17:42:28;18.50;79.00
26964;DHT22;14521;48.148;-1.656;2023-02-01T17:46:03;18.50;78.40
26964;DHT22;14521;48.148;-1.656;2023-02-01T17:49:27;18.50;78.10
26964;DHT22;14521;48.148;-1.656;2023-02-01T17:52:52;18.50;78.10
26964;DHT22;14521;48.148;-1.656;2023-02-01T17:56:17;18.50;78.00
26964;DHT22;14521;48.148;-1.656;2023-02-01T17:59:39;18.50;78.00
26964;DHT22;14521;48.148;-1.656;2023-02-01T18:03:02;18.40;77.80
26964;DHT22;14521;48.148;-1.656;2023-02-01T18:06:25;18.40;77.80
26964;DHT22;14521;48.148;-1.656;2023-02-01T18:09:47;18.40;77.80
26964;DHT22;14521;48.148;-1.656;2023-02-01T18:13:13;18.40;77.80
26964;DHT22;14521;48.148;-1.656;2023-02-01T18:16:35;18.40;77.70
26964;DHT22;14521;48.148;-1.656;2023-02-01T18:19:58;18.40;77.80
26964;DHT22;14521;48.148;-1.656;2023-02-01T18:23:22;18.40;77.70
26964;DHT22;14521;48.148;-1.656;2023-02-01T18:26:44;18.30;77.60
26964;DHT22;14521;48.148;-1.656;2023-02-01T18:30:08;18.40;77.50
26964;DHT22;14521;48.148;-1.656;2023-02-01T18:33:30;18.40;77.50
26964;DHT22;14521;48.148;-1.656;2023-02-01T18:36:53;18.40;77.50
26964;DHT22;14521;48.148;-1.656;2023-02-01T18:40:18;18.40;77.40
26964;DHT22;14521;48.148;-1.656;2023-02-01T18:43:41;18.40;77.40
26964;DHT22;14521;48.148;-1.656;2023-02-01T18:47:04;18.40;77.60
26964;DHT22;14521;48.148;-1.656;2023-02-01T18:50:28;18.40;77.40
26964;DHT22;14521;48.148;-1.656;2023-02-01T18:53:51;18.40;77.30
26964;DHT22;14521;48.148;-1.656;2023-02-01T18:57:14;18.40;77.30
26964;DHT22;14521;48.148;-1.656;2023-02-01T19:00:37;18.40;77.30
26964;DHT22;14521;48.148;-1.656;2023-02-01T19:03:59;18.40;77.20
26964;DHT22;14521;48.148;-1.656;2023-02-01T19:07:30;18.40;77.20
26964;DHT22;14521;48.148;-1.656;2023-02-01T19:10:53;18.40;77.10
26964;DHT22;14521;48.148;-1.656;2023-02-01T19:14:15;18.40;77.00
26964;DHT22;14521;48.148;-1.656;2023-02-01T19:17:42;18.40;77.00
26964;DHT22;14521;48.148;-1.656;2023-02-01T19:21:10;18.40;77.00
26964;DHT22;14521;48.148;-1.656;2023-02-01T19:24:32;18.40;76.90
26964;DHT22;14521;48.148;-1.656;2023-02-01T19:27:55;18.40;76.90
26964;DHT22;14521;48.148;-1.656;2023-02-01T19:31:17;18.40;76.80
26964;DHT22;14521;48.148;-1.656;2023-02-01T19:34:39;18.40;76.80
26964;DHT22;14521;48.148;-1.656;2023-02-01T19:38:02;18.40;76.70
26964;DHT22;14521;48.148;-1.656;2023-02-01T19:41:24;18.40;76.70
26964;DHT22;14521;48.148;-1.656;2023-02-01T19:44:46;18.40;76.70
26964;DHT22;14521;48.148;-1.656;2023-02-01T19:48:09;18.40;76.70
26964;DHT22;14521;48.148;-1.656;2023-02-01T19:51:34;18.40;76.60
26964;DHT22;14521;48.148;-1.656;2023-02-01T19:54:56;18.40;76.60
26964;DHT22;14521;48.148;-1.656;2023-02-01T19:58:18;18.50;76.60
26964;DHT22;14521;48.148;-1.656;2023-02-01T20:01:40;18.40;76.50
26964;DHT22;14521;48.148;-1.656;2023-02-01T20:05:06;18.50;76.60
26964;DHT22;14521;48.148;-1.656;2023-02-01T20:08:29;18.50;76.60
26964;DHT22;14521;48.148;-1.656;2023-02-01T20:11:52;18.50;76.50
26964;DHT22;14521;48.148;-1.656;2023-02-01T20:15:16;18.50;76.50
26964;DHT22;14521;48.148;-1.656;2023-02-01T20:18:38;18.50;76.50
26964;DHT22;14521;48.148;-1.656;2023-02-01T20:22:01;18.50;76.40
26964;DHT22;14521;48.148;-1.656;2023-02-01T20:25:23;18.50;76.40
26964;DHT22;14521;48.148;-1.656;2023-02-01T20:28:46;18.50;76.40
26964;DHT22;14521;48.148;-1.656;2023-02-01T20:32:08;18.50;76.30
26964;DHT22;14521;48.148;-1.656;2023-02-01T20:35:31;18.40;76.20
26964;DHT22;14521;48.148;-1.656;2023-02-01T20:38:54;18.50;76.30
26964;DHT22;14521;48.148;-1.656;2023-02-01T20:42:17;18.50;76.30
26964;DHT22;14521;48.148;-1.656;2023-02-01T20:45:43;18.50;76.20
26964;DHT22;14521;48.148;-1.656;2023-02-01T20:49:05;18.50;76.20
26964;DHT22;14521;48.148;-1.656;2023-02-01T20:52:27;18.50;76.20
26964;DHT22;14521;48.148;-1.656;2023-02-01T20:55:51;18.50;76.20
26964;DHT22;14521;48.148;-1.656;2023-02-01T20:59:15;18.50;76.20
26964;DHT22;14521;48.148;-1.656;2023-02-01T21:02:38;18.50;76.20
26964;DHT22;14521;48.148;-1.656;2023-02-01T21:06:01;18.50;76.20
26964;DHT22;14521;48.148;-1.656;2023-02-01T21:09:24;18.50;76.20
26964;DHT22;14521;48.148;-1.656;2023-02-01T21:12:46;18.50;76.10
26964;DHT22;14521;48.148;-1.656;2023-02-01T21:16:14;18.50;76.10
26964;DHT22;14521;48.148;-1.656;2023-02-01T21:19:37;18.50;76.10
26964;DHT22;14521;48.148;-1.656;2023-02-01T21:23:05;18.50;76.10
26964;DHT22;14521;48.148;-1.656;2023-02-01T21:26:28;18.50;76.00
26964;DHT22;14521;48.148;-1.656;2023-02-01T21:29:50;18.50;76.00
26964;DHT22;14521;48.148;-1.656;2023-02-01T21:33:12;18.50;76.00
26964;DHT22;14521;48.148;-1.656;2023-02-01T21:36:34;18.50;76.20
26964;DHT22;14521;48.148;-1.656;2023-02-01T21:39:57;18.50;76.10
26964;DHT22;14521;48.148;-1.656;2023-02-01T21:43:19;18.50;76.10
26964;DHT22;14521;48.148;-1.656;2023-02-01T21:46:44;18.50;76.00
26964;DHT22;14521;48.148;-1.656;2023-02-01T21:50:13;18.50;75.90
26964;DHT22;14521;48.148;-1.656;2023-02-01T21:53:36;18.50;76.00
26964;DHT22;14521;48.148;-1.656;2023-02-01T21:56:58;18.50;76.00
26964;DHT22;14521;48.148;-1.656;2023-02-01T22:00:20;18.50;76.00
26964;DHT22;14521;48.148;-1.656;2023-02-01T22:03:44;18.40;75.80
26964;DHT22;14521;48.148;-1.656;2023-02-01T22:07:07;18.50;75.90
26964;DHT22;14521;48.148;-1.656;2023-02-01T22:10:29;18.50;75.90
26964;DHT22;14521;48.148;-1.656;2023-02-01T22:13:52;18.40;75.80
26964;DHT22;14521;48.148;-1.656;2023-02-01T22:17:14;18.40;76.70
26964;DHT22;14521;48.148;-1.656;2023-02-01T22:20:37;18.50;75.80
26964;DHT22;14521;48.148;-1.656;2023-02-01T22:23:59;18.40;75.70
26964;DHT22;14521;48.148;-1.656;2023-02-01T22:27:21;18.40;75.70
26964;DHT22;14521;48.148;-1.656;2023-02-01T22:31:08;18.40;75.80
26964;DHT22;14521;48.148;-1.656;2023-02-01T22:34:30;18.40;75.80
26964;DHT22;14521;48.148;-1.656;2023-02-01T22:37:52;18.40;75.90
26964;DHT22;14521;48.148;-1.656;2023-02-01T22:41:14;18.40;75.80
26964;DHT22;14521;48.148;-1.656;2023-02-01T22:44:37;18.40;75.90
26964;DHT22;14521;48.148;-1.656;2023-02-01T22:48:01;18.40;76.00
26964;DHT22;14521;48.148;-1.656;2023-02-01T22:51:26;18.40;75.80
26964;DHT22;14521;48.148;-1.656;2023-02-01T22:54:49;18.40;75.90
26964;DHT22;14521;48.148;-1.656;2023-02-01T22:58:11;18.30;75.90
26964;DHT22;14521;48.148;-1.656;2023-02-01T23:01:34;18.30;75.80
26964;DHT22;14521;48.148;-1.656;2023-02-01T23:04:56;18.30;75.80
26964;DHT22;14521;48.148;-1.656;2023-02-01T23:08:18;18.30;75.70
26964;DHT22;14521;48.148;-1.656;2023-02-01T23:11:41;18.30;75.60
26964;DHT22;14521;48.148;-1.656;2023-02-01T23:15:04;18.30;75.70
26964;DHT22;14521;48.148;-1.656;2023-02-01T23:18:27;18.30;75.60
26964;DHT22;14521;48.148;-1.656;2023-02-01T23:21:49;18.30;75.70
26964;DHT22;14521;48.148;-1.656;2023-02-01T23:25:14;18.30;75.80
26964;DHT22;14521;48.148;-1.656;2023-02-01T23:28:36;18.30;75.60
26964;DHT22;14521;48.148;-1.656;2023-02-01T23:31:59;18.30;75.60